MST,Max TemperatureF,Mean TemperatureF,Min TemperatureF,Max Dew PointF,MeanDew PointF,Min DewpointF,Max Humidity, Mean Humidity, Min Humidity, Max Sea Level PressureIn, Mean Sea Level PressureIn, Min Sea Level PressureIn, Max VisibilityMiles, Mean VisibilityMiles, Min VisibilityMiles, Max Wind SpeedMPH, Mean Wind SpeedMPH, Max Gust SpeedMPH,PrecipitationIn, CloudCover, Events, WindDirDegrees
2011-11-1,51,38,26,30,26,23,86,64,37,30.06,29.98,29.85,10,7,1,24,9,32,0.00,7,,226
2011-11-2,30,22,15,25,17,10,93,76,51,30.46,30.35,30.05,10,10,1,15,6,21,0.00,2,,236
2011-11-3,46,29,12,19,13,5,86,59,23,30.44,30.21,30.02,10,10,10,10,6,,0.00,0,,149
2011-11-4,60,40,21,25,17,10,69,43,19,30.01,29.82,29.62,10,10,10,26,10,34,0.00,0,,163
2011-11-5,48,36,23,34,24,18,93,72,32,29.80,29.57,29.45,10,6,1,26,9,36,0.02,6,,292
2011-11-6,32,24,17,21,16,12,93,73,55,30.01,29.92,29.83,10,10,3,13,4,17,0.00,6,,329
2011-11-7,39,32,24,21,18,16,74,64,42,30.04,29.99,29.93,10,10,10,15,8,17,0.00,4,,168
2011-11-8,33,25,17,21,16,9,86,68,44,30.36,30.20,30.04,10,10,4,13,4,,0.00,4,,281
2011-11-9,35,24,14,16,12,7,93,62,35,30.53,30.46,30.38,10,10,10,12,5,,0.00,0,,107
2011-11-10,46,30,15,16,10,3,74,46,23,30.50,30.37,30.25,10,10,10,13,8,,0.00,0,,123
2011-11-11,44,30,17,10,7,3,68,42,18,30.24,30.07,29.89,10,10,10,13,7,,0.00,0,,125
2011-11-12,46,36,26,28,18,10,80,51,34,29.84,29.74,29.62,10,10,2,32,10,47,0.00,8,,184
2011-11-13,39,32,24,32,26,21,93,83,65,29.78,29.71,29.63,10,7,0,26,6,32,0.03,8,,297
2011-11-14,42,33,24,21,16,12,80,52,29,29.83,29.80,29.73,10,10,10,30,7,38,0.00,4,,305
2011-11-15,37,32,28,18,15,12,59,47,41,29.99,29.92,29.83,10,10,10,16,10,21,0.00,5,,298
2011-11-16,30,22,15,12,9,7,73,57,40,30.30,30.22,30.07,10,10,9,12,6,,0.00,0,,271
2011-11-17,44,32,19,16,11,7,63,48,27,30.25,30.14,29.96,10,10,10,13,9,,0.00,4,,107
2011-11-18,51,40,28,21,18,14,60,42,26,29.85,29.65,29.46,10,10,10,28,10,40,0.00,2,,168
2011-11-19,37,29,21,25,21,16,93,84,41,29.92,29.76,29.47,10,3,0,23,9,30,0.02,8,,247
2011-11-20,33,27,21,28,25,18,93,85,75,30.07,30.01,29.91,10,8,1,12,5,,0.01,7,,117
2011-11-21,37,32,28,30,28,25,100,86,75,30.13,30.07,30.03,10,9,1,15,7,,0.00,7,,130
2011-11-22,41,34,28,30,28,23,93,83,60,30.36,30.28,30.20,10,7,0,13,3,,0.04,6,,65
2011-11-23,42,32,21,28,21,16,86,70,53,30.37,30.26,30.15,10,10,10,16,10,,0.00,0,,123
2011-11-24,44,32,19,25,20,12,86,62,45,30.14,30.05,29.96,10,10,10,15,9,,0.00,0,,119
2011-11-25,41,31,21,27,19,10,86,67,49,30.30,30.01,29.88,10,10,0,39,6,58,0.00,5,,285
2011-11-26,26,17,8,12,3,0,73,54,37,30.64,30.55,30.31,10,10,10,17,8,23,0.00,0,,151
2011-11-27,39,24,10,16,7,0,67,52,30,30.63,30.54,30.43,10,10,10,18,11,,0.00,0,,116
2011-11-28,44,32,19,21,15,9,68,55,39,30.42,30.38,30.32,10,10,10,16,10,,0.00,0,,131
2011-11-29,46,32,19,23,19,14,93,60,39,30.41,30.34,30.27,10,10,10,9,4,,0.00,0,,142
2011-11-30,41,30,19,21,18,10,80,61,42,30.18,29.99,29.87,10,10,9,15,9,,0.00,0,,153